MAS2610 WMKK-WBKK
Flight info
| Callsign | MAS2610 |
|---|---|
| Flight time | N/A |
| Altitude | 37000 |
| Route | KIMAT1D KIMAT Y344 VPK M758 VIDIP DCT EGENU |
| Aircraft | B738/M-SDE2E3FGHIRWXY/LB1 |
Departure
| Time | N/A |
|---|---|
| Airport | Kuala Lumpur International Airport (WMKK) |
Arrival
| Time | 2026-05-05 17:04 |
|---|---|
| Airport | Kota Kinabalu International Airport (WBKK) |
| Time | Latitude | Longitude | Altitude | Speed | Heading |
|---|---|---|---|---|---|
| 2026-05-05 16:28 | 5.14886 | 113.06398 | 36862 ft | 426 kts | 76° |
| 2026-05-05 16:28 | 5.16369 | 113.12155 | 36860 ft | 426 kts | 76° |
| 2026-05-05 16:29 | 5.17852 | 113.17915 | 36859 ft | 426 kts | 76° |
| 2026-05-05 16:29 | 5.19337 | 113.23683 | 36859 ft | 427 kts | 76° |
| 2026-05-05 16:30 | 5.20813 | 113.29417 | 36858 ft | 427 kts | 76° |
| 2026-05-05 16:30 | 5.22298 | 113.35189 | 36859 ft | 427 kts | 76° |
| 2026-05-05 16:31 | 5.23782 | 113.40961 | 36858 ft | 427 kts | 76° |
| 2026-05-05 16:31 | 5.25267 | 113.46741 | 36858 ft | 427 kts | 76° |
| 2026-05-05 16:32 | 5.26752 | 113.52520 | 36858 ft | 428 kts | 76° |
| 2026-05-05 16:32 | 5.28237 | 113.58304 | 36858 ft | 428 kts | 76° |
| 2026-05-05 16:33 | 5.29712 | 113.64049 | 36853 ft | 428 kts | 76° |
| 2026-05-05 16:33 | 5.31197 | 113.69835 | 36852 ft | 428 kts | 76° |
| 2026-05-05 16:34 | 5.32682 | 113.75628 | 36852 ft | 429 kts | 76° |
| 2026-05-05 16:34 | 5.34168 | 113.81421 | 36852 ft | 429 kts | 76° |
| 2026-05-05 16:35 | 5.35657 | 113.87221 | 36852 ft | 429 kts | 76° |
| 2026-05-05 16:35 | 5.36743 | 113.91459 | 36853 ft | 429 kts | 76° |
| 2026-05-05 16:36 | 5.38228 | 113.97263 | 36852 ft | 429 kts | 76° |
| 2026-05-05 16:36 | 5.39712 | 114.03064 | 36860 ft | 429 kts | 76° |
| 2026-05-05 16:37 | 5.41197 | 114.08874 | 36423 ft | 440 kts | 76° |
| 2026-05-05 16:37 | 5.41968 | 114.11889 | 35872 ft | 453 kts | 76° |
| 2026-05-05 16:37 | 5.42764 | 114.15016 | 35224 ft | 468 kts | 76° |
| 2026-05-05 16:38 | 5.43576 | 114.18214 | 34762 ft | 476 kts | 76° |
| 2026-05-05 16:38 | 5.44394 | 114.21438 | 34755 ft | 473 kts | 76° |
| 2026-05-05 16:38 | 5.46011 | 114.27817 | 34738 ft | 470 kts | 76° |
| 2026-05-05 16:39 | 5.46811 | 114.30973 | 34695 ft | 459 kts | 76° |
| 2026-05-05 16:39 | 5.47573 | 114.33982 | 34573 ft | 444 kts | 76° |
| 2026-05-05 16:39 | 5.48324 | 114.36950 | 34216 ft | 435 kts | 76° |
| 2026-05-05 16:39 | 5.49067 | 114.39884 | 33635 ft | 432 kts | 76° |
| 2026-05-05 16:40 | 5.49806 | 114.42805 | 33070 ft | 430 kts | 76° |
| 2026-05-05 16:40 | 5.50538 | 114.45698 | 32566 ft | 425 kts | 76° |
| 2026-05-05 16:40 | 5.51265 | 114.48562 | 32044 ft | 422 kts | 76° |
| 2026-05-05 16:40 | 5.51986 | 114.51403 | 31548 ft | 418 kts | 76° |
| 2026-05-05 16:41 | 5.52703 | 114.54234 | 31045 ft | 415 kts | 76° |
| 2026-05-05 16:41 | 5.53411 | 114.57029 | 30538 ft | 412 kts | 77° |
| 2026-05-05 16:41 | 5.54113 | 114.59802 | 30068 ft | 408 kts | 77° |
| 2026-05-05 16:41 | 5.54809 | 114.62549 | 29577 ft | 405 kts | 77° |
| 2026-05-05 16:42 | 5.55500 | 114.65282 | 29093 ft | 402 kts | 77° |
| 2026-05-05 16:42 | 5.56187 | 114.67998 | 28621 ft | 399 kts | 77° |
| 2026-05-05 16:42 | 5.56867 | 114.70690 | 28152 ft | 396 kts | 77° |
| 2026-05-05 16:42 | 5.57542 | 114.73361 | 27689 ft | 393 kts | 77° |
| 2026-05-05 16:43 | 5.58212 | 114.76011 | 27234 ft | 391 kts | 77° |
| 2026-05-05 16:43 | 5.58869 | 114.78610 | 26787 ft | 388 kts | 77° |
| 2026-05-05 16:43 | 5.59529 | 114.81223 | 26346 ft | 385 kts | 77° |
| 2026-05-05 16:43 | 5.60184 | 114.83819 | 25907 ft | 383 kts | 77° |
| 2026-05-05 16:44 | 5.60838 | 114.86401 | 25474 ft | 380 kts | 77° |
| 2026-05-05 16:44 | 5.61485 | 114.88962 | 25049 ft | 377 kts | 77° |
| 2026-05-05 16:44 | 5.62129 | 114.91508 | 24629 ft | 375 kts | 77° |
| 2026-05-05 16:44 | 5.62767 | 114.94038 | 24213 ft | 372 kts | 77° |
| 2026-05-05 16:45 | 5.63402 | 114.96557 | 23804 ft | 370 kts | 77° |
| 2026-05-05 16:45 | 5.64031 | 114.99051 | 23398 ft | 368 kts | 77° |
| 2026-05-05 16:45 | 5.64661 | 115.01551 | 22826 ft | 371 kts | 76° |
| 2026-05-05 16:45 | 5.65297 | 115.04077 | 22251 ft | 375 kts | 76° |
| 2026-05-05 16:46 | 5.65939 | 115.06626 | 21676 ft | 378 kts | 76° |
| 2026-05-05 16:46 | 5.66586 | 115.09195 | 21102 ft | 381 kts | 76° |
| 2026-05-05 16:46 | 5.67239 | 115.11790 | 20524 ft | 383 kts | 76° |
| 2026-05-05 16:46 | 5.67894 | 115.14389 | 19950 ft | 385 kts | 76° |
| 2026-05-05 16:47 | 5.68547 | 115.16974 | 19379 ft | 386 kts | 76° |
| 2026-05-05 16:47 | 5.69288 | 115.19605 | 18798 ft | 387 kts | 74° |
| 2026-05-05 16:47 | 5.70072 | 115.22162 | 18229 ft | 388 kts | 73° |
| 2026-05-05 16:47 | 5.70866 | 115.24752 | 17653 ft | 388 kts | 73° |
| 2026-05-05 16:48 | 5.71652 | 115.27344 | 17078 ft | 388 kts | 73° |
| 2026-05-05 16:48 | 5.72434 | 115.29936 | 16557 ft | 385 kts | 73° |
| 2026-05-05 16:48 | 5.73194 | 115.32469 | 16155 ft | 372 kts | 74° |
| 2026-05-05 16:48 | 5.73600 | 115.34982 | 15753 ft | 360 kts | 90° |
| 2026-05-05 16:49 | 5.73183 | 115.37419 | 15418 ft | 349 kts | 109° |
| 2026-05-05 16:49 | 5.72006 | 115.39476 | 15281 ft | 334 kts | 129° |
| 2026-05-05 16:49 | 5.70297 | 115.40992 | 15052 ft | 325 kts | 144° |
| 2026-05-05 16:49 | 5.68347 | 115.42130 | 14654 ft | 324 kts | 152° |
| 2026-05-05 16:50 | 5.66313 | 115.43101 | 14379 ft | 323 kts | 154° |
| 2026-05-05 16:50 | 5.64287 | 115.44052 | 14081 ft | 320 kts | 153° |
| 2026-05-05 16:50 | 5.62285 | 115.45015 | 13725 ft | 318 kts | 153° |
| 2026-05-05 16:50 | 5.60293 | 115.45989 | 13374 ft | 317 kts | 153° |
| 2026-05-05 16:51 | 5.58319 | 115.46966 | 13044 ft | 315 kts | 153° |
| 2026-05-05 16:51 | 5.56386 | 115.47929 | 12717 ft | 314 kts | 153° |
| 2026-05-05 16:51 | 5.54434 | 115.48908 | 12370 ft | 313 kts | 152° |
| 2026-05-05 16:51 | 5.52492 | 115.49884 | 12044 ft | 311 kts | 152° |
| 2026-05-05 16:52 | 5.50567 | 115.50854 | 11718 ft | 309 kts | 152° |
| 2026-05-05 16:52 | 5.48670 | 115.51865 | 11376 ft | 307 kts | 145° |
| 2026-05-05 16:52 | 5.47169 | 115.53370 | 11034 ft | 305 kts | 123° |
| 2026-05-05 16:52 | 5.46374 | 115.55302 | 10773 ft | 296 kts | 101° |
| 2026-05-05 16:53 | 5.46383 | 115.57320 | 10524 ft | 286 kts | 80° |
| 2026-05-05 16:53 | 5.47002 | 115.59203 | 10139 ft | 285 kts | 68° |
| 2026-05-05 16:53 | 5.47832 | 115.61011 | 9833 ft | 285 kts | 65° |
| 2026-05-05 16:53 | 5.48682 | 115.62771 | 9543 ft | 283 kts | 65° |
| 2026-05-05 16:54 | 5.49547 | 115.64548 | 9235 ft | 282 kts | 66° |
| 2026-05-05 16:54 | 5.50351 | 115.66345 | 8925 ft | 281 kts | 67° |
| 2026-05-05 16:54 | 5.51133 | 115.68144 | 8628 ft | 280 kts | 68° |
| 2026-05-05 16:54 | 5.51904 | 115.69938 | 8332 ft | 279 kts | 68° |
| 2026-05-05 16:55 | 5.52664 | 115.71716 | 8032 ft | 277 kts | 68° |
| 2026-05-05 16:55 | 5.53165 | 115.72895 | 7832 ft | 276 kts | 68° |
| 2026-05-05 16:55 | 5.53921 | 115.74668 | 7534 ft | 275 kts | 68° |
| 2026-05-05 16:55 | 5.54725 | 115.76402 | 7229 ft | 274 kts | 63° |
| 2026-05-05 16:56 | 5.55692 | 115.78048 | 6930 ft | 273 kts | 59° |
| 2026-05-05 16:56 | 5.56710 | 115.79650 | 6625 ft | 272 kts | 58° |
| 2026-05-05 16:56 | 5.57732 | 115.81249 | 6319 ft | 270 kts | 58° |
| 2026-05-05 16:56 | 5.58737 | 115.82838 | 6016 ft | 269 kts | 59° |
| 2026-05-05 16:57 | 5.59733 | 115.84423 | 5708 ft | 268 kts | 58° |
| 2026-05-05 16:57 | 5.60724 | 115.86002 | 5393 ft | 267 kts | 58° |
| 2026-05-05 16:57 | 5.61695 | 115.87555 | 5103 ft | 265 kts | 58° |
| 2026-05-05 16:57 | 5.62659 | 115.89100 | 4982 ft | 256 kts | 58° |
| 2026-05-05 16:58 | 5.63582 | 115.90581 | 4906 ft | 245 kts | 58° |
| 2026-05-05 16:58 | 5.64464 | 115.91981 | 4811 ft | 233 kts | 56° |
| 2026-05-05 16:58 | 5.65498 | 115.93205 | 4577 ft | 225 kts | 43° |
| 2026-05-05 16:58 | 5.66824 | 115.94029 | 4297 ft | 224 kts | 24° |
| 2026-05-05 16:59 | 5.68261 | 115.94619 | 4042 ft | 222 kts | 21° |
| 2026-05-05 16:59 | 5.69704 | 115.95149 | 3778 ft | 221 kts | 19° |
| 2026-05-05 16:59 | 5.71158 | 115.95667 | 3546 ft | 221 kts | 20° |
| 2026-05-05 16:59 | 5.72590 | 115.96233 | 3316 ft | 219 kts | 22° |
| 2026-05-05 17:00 | 5.73984 | 115.96813 | 3078 ft | 215 kts | 22° |
| 2026-05-05 17:00 | 5.75340 | 115.97376 | 2929 ft | 206 kts | 22° |
| 2026-05-05 17:00 | 5.76627 | 115.97913 | 2804 ft | 200 kts | 22° |
| 2026-05-05 17:00 | 5.77887 | 115.98439 | 2692 ft | 194 kts | 21° |
| 2026-05-05 17:01 | 5.79112 | 115.98952 | 2654 ft | 186 kts | 21° |
| 2026-05-05 17:01 | 5.80278 | 115.99456 | 2617 ft | 182 kts | 23° |
| 2026-05-05 17:01 | 5.81446 | 115.99967 | 2384 ft | 179 kts | 21° |
| 2026-05-05 17:01 | 5.82586 | 116.00360 | 2124 ft | 169 kts | 16° |
| 2026-05-05 17:02 | 5.83704 | 116.00677 | 1870 ft | 165 kts | 13° |
| 2026-05-05 17:02 | 5.84801 | 116.01000 | 1517 ft | 168 kts | 19° |
| 2026-05-05 17:02 | 5.85906 | 116.01435 | 1156 ft | 171 kts | 22° |
| 2026-05-05 17:02 | 5.86995 | 116.01874 | 947 ft | 166 kts | 23° |
| 2026-05-05 17:03 | 5.88048 | 116.02320 | 765 ft | 161 kts | 25° |
| 2026-05-05 17:03 | 5.89058 | 116.02775 | 585 ft | 158 kts | 25° |
| 2026-05-05 17:03 | 5.90052 | 116.03217 | 390 ft | 156 kts | 25° |
| 2026-05-05 17:03 | 5.91040 | 116.03650 | 210 ft | 153 kts | 24° |
| 2026-05-05 17:04 | 5.91996 | 116.04071 | 82 ft | 148 kts | 24° |
| 2026-05-05 17:04 | 5.92917 | 116.04470 | 30 ft | 139 kts | 21° |
| 2026-05-05 17:04 | 5.93751 | 116.04819 | 18 ft | 120 kts | 24° |
| 2026-05-05 17:04 | 5.94134 | 116.04986 | 18 ft | 27 kts | 27° |
| 2026-05-05 17:05 | 5.94235 | 116.05017 | 18 ft | 3 kts | 279° |
| 2026-05-05 17:05 | 5.94193 | 116.04996 | 18 ft | 17 kts | 197° |
| 2026-05-05 17:05 | 5.93992 | 116.04939 | 18 ft | 43 kts | 192° |
| 2026-05-05 17:05 | 5.93865 | 116.04948 | 18 ft | 11 kts | 105° |
| 2026-05-05 17:06 | 5.93855 | 116.04966 | 18 ft | 0 kts | 128° |
| 2026-05-05 17:06 | 5.93853 | 116.04969 | 18 ft | 4 kts | 128° |
| 2026-05-05 17:06 | 5.93823 | 116.04993 | 18 ft | 4 kts | 152° |
| 2026-05-05 17:06 | 5.93805 | 116.04999 | 18 ft | 8 kts | 167° |
| 2026-05-05 17:07 | 5.93714 | 116.04979 | 18 ft | 14 kts | 206° |
| 2026-05-05 17:07 | 5.93644 | 116.04945 | 18 ft | 9 kts | 202° |
| 2026-05-05 17:07 | 5.93607 | 116.04930 | 18 ft | 3 kts | 202° |
| 2026-05-05 17:07 | 5.93533 | 116.04899 | 18 ft | 24 kts | 202° |
| 2026-05-05 17:08 | 5.93347 | 116.04822 | 18 ft | 28 kts | 202° |
| 2026-05-05 17:08 | 5.93184 | 116.04753 | 18 ft | 23 kts | 202° |
| 2026-05-05 17:08 | 5.93052 | 116.04699 | 18 ft | 18 kts | 202° |
| 2026-05-05 17:08 | 5.92954 | 116.04658 | 18 ft | 13 kts | 202° |
| 2026-05-05 17:09 | 5.92878 | 116.04625 | 18 ft | 17 kts | 204° |
| 2026-05-05 17:09 | 5.92798 | 116.04620 | 18 ft | 8 kts | 120° |
| 2026-05-05 17:09 | 5.92783 | 116.04652 | 18 ft | 4 kts | 112° |
| 2026-05-05 17:09 | 5.92742 | 116.04694 | 18 ft | 9 kts | 193° |
| 2026-05-05 17:10 | 5.92694 | 116.04677 | 18 ft | 5 kts | 202° |
| 2026-05-05 17:10 | 5.92654 | 116.04660 | 18 ft | 15 kts | 202° |
| 2026-05-05 17:10 | 5.92559 | 116.04625 | 18 ft | 10 kts | 201° |
| 2026-05-05 17:10 | 5.92524 | 116.04637 | 18 ft | 5 kts | 115° |
| 2026-05-05 17:11 | 5.92524 | 116.04669 | 18 ft | 6 kts | 76° |
| 2026-05-05 17:11 | 5.92533 | 116.04700 | 18 ft | 1 kts | 72° |
| 2026-05-05 17:11 | 5.92534 | 116.04704 | 18 ft | 0 kts | 72° |